First Coast — WCR9075 — position and weather

sailwx.info

Track history (hours):
 
Tides and Currents Weather Stations Pressure Air Temp Water Temp Dewpoint Dewpoint Depression Visibility Wind Speed Wind Dir Waves Ship Positions

First Coast

Owner: DANN MARINE TOWING L C, CHESAPEAKE CITY, MD. More information available from US FCC via Universal Licensing System and Coast Guard Vessel Documentation Center.

Last reported at 2016-May-28 01:34 UTC. Time now 2016-May-28 02:03 UTC.
Position N 39°54' W 075°09'.

; draft 4 m.

Type: Tug. MMSI: 367024280.

Date/timePositionNaut miles runAvg speedWind from/ knotsBaromVisibWave heightAir tempDewpointWater temp
2016-May-28 01:34N 39°54' W 075°09'0 0.0
2016-May-28 00:33N 39°54' W 075°09'0 0.0
2016-May-27 23:33N 39°54' W 075°09'0 0.1
2016-May-27 22:33N 39°54' W 075°08'0 0.1
2016-May-27 21:33N 39°54' W 075°09'0 0.0
2016-May-27 20:33N 39°54' W 075°09'0 0.0
2016-May-27 19:32N 39°54' W 075°09'0 0.0
2016-May-27 18:33N 39°54' W 075°09'0 0.0
2016-May-27 17:33N 39°54' W 075°09'0 0.0
2016-May-27 16:28N 39°54' W 075°09'0 0.5
2016-May-27 15:33N 39°54' W 075°08'0 0.5
2016-May-27 14:33N 39°54' W 075°09'0 0.0
2016-May-27 13:31N 39°54' W 075°09'0 0.0
2016-May-27 12:33N 39°54' W 075°09'0 0.0
2016-May-27 11:33N 39°54' W 075°09'0 0.0
2016-May-27 10:33N 39°54' W 075°09'0 0.0
2016-May-27 09:33N 39°54' W 075°09'0 0.0
2016-May-27 08:33N 39°54' W 075°09'0 0.0
2016-May-27 07:33N 39°54' W 075°09'0 0.0
2016-May-27 06:33N 39°54' W 075°09'0 0.0
2016-May-27 05:33N 39°54' W 075°09'3 3.4
2016-May-27 04:33N 39°52' W 075°13'9 9.4
2016-May-27 03:33N 39°49' W 075°24'2 2.2
2016-May-27 02:28N 39°48' W 075°27'5 5.6
2016-May-27 01:32N 39°43' W 075°30'5 5.4
2016-May-27 00:33N 39°39' W 075°34'5 4.8
2016-May-26 23:33N 39°34' W 075°33'6 6.3
2016-May-26 22:33N 39°33' W 075°41'6 5.9
2016-May-26 21:33N 39°32' W 075°49'  
2016-May-24 13:33N 39°30' W 075°56'6 6.0
2016-May-24 12:33N 39°32' W 075°48'7 6.9
2016-May-24 11:33N 39°33' W 075°40'6 5.6
2016-May-24 10:33N 39°37' W 075°35'1110.6
2016-May-24 09:33N 39°46' W 075°28'3 2.9
2016-May-24 08:33N 39°48' W 075°25'0 0.0
2016-May-24 07:33N 39°48' W 075°25'0 0.0
2016-May-24 06:33N 39°48' W 075°25'0 0.0
2016-May-24 05:33N 39°48' W 075°25'0 0.0
2016-May-24 04:33N 39°48' W 075°25'0 0.0
2016-May-24 03:33N 39°48' W 075°25'0 0.0
2016-May-24 02:33N 39°48' W 075°25'0 0.0
2016-May-24 01:33N 39°48' W 075°25'0 0.0
2016-May-24 00:33N 39°48' W 075°25'0 0.0
2016-May-23 23:33N 39°48' W 075°25'0 0.0
2016-May-23 22:33N 39°48' W 075°25'0 0.0
2016-May-23 21:33N 39°48' W 075°25'0 0.0
2016-May-23 20:33N 39°48' W 075°25'0 0.0
2016-May-23 19:33N 39°48' W 075°25'0 0.0
2016-May-23 18:30N 39°48' W 075°25'0 0.0
2016-May-23 17:33N 39°48' W 075°25'0 0.0
2016-May-23 14:30N 39°48' W 075°25'0 0.0
2016-May-23 13:33N 39°48' W 075°25'0 0.0
2016-May-23 12:33N 39°48' W 075°25'0 0.0
2016-May-23 11:33N 39°48' W 075°25'0 0.0
2016-May-23 10:33N 39°48' W 075°25'0 0.0
2016-May-23 09:33N 39°48' W 075°25'0 0.0
2016-May-23 08:33N 39°48' W 075°25'0 0.0
2016-May-23 07:33N 39°48' W 075°25'0 0.0
2016-May-23 06:33N 39°48' W 075°25'0 0.0
2016-May-23 05:33N 39°48' W 075°25'0 0.0
2016-May-23 04:33N 39°48' W 075°25'0 0.0
2016-May-23 03:33N 39°48' W 075°25'0 0.0
2016-May-23 02:33N 39°48' W 075°25'0 0.0
2016-May-23 01:33N 39°48' W 075°25'0 0.0
2016-May-23 00:33N 39°48' W 075°25'0 0.0
2016-May-22 23:33N 39°48' W 075°25'0 0.0
2016-May-22 22:33N 39°48' W 075°25'0 0.0
2016-May-22 21:33N 39°48' W 075°25'0 0.0
2016-May-22 20:33N 39°48' W 075°25'0 0.0
2016-May-22 19:33N 39°48' W 075°25'0 0.0
2016-May-22 18:30N 39°48' W 075°25'0 0.0
2016-May-22 17:33N 39°48' W 075°25'0 0.0
2016-May-22 16:33N 39°48' W 075°25'4 3.6
2016-May-22 15:33N 39°50' W 075°21'8 7.9
2016-May-22 14:33N 39°53' W 075°12'1 0.7
2016-May-22 13:32N 39°54' W 075°12'3 3.0
2016-May-22 12:33N 39°54' W 075°09'0 0.0
2016-May-22 11:33N 39°54' W 075°09'0 0.0
2016-May-22 10:33N 39°54' W 075°09'0 0.0
2016-May-22 09:33N 39°54' W 075°09'0 0.0
2016-May-22 08:32N 39°54' W 075°09'0 0.0
2016-May-22 07:33N 39°54' W 075°09'0 0.0
2016-May-22 06:33N 39°54' W 075°09'0 0.0
2016-May-22 05:33N 39°54' W 075°09'0 0.0
2016-May-22 04:33N 39°54' W 075°09'0 0.0
2016-May-22 03:33N 39°54' W 075°09'0 0.0
2016-May-22 02:33N 39°54' W 075°09'0 0.0
2016-May-22 01:33N 39°54' W 075°09'0 0.0
2016-May-22 00:33N 39°54' W 075°09'0 0.0
2016-May-21 23:33N 39°54' W 075°09'0 0.0
2016-May-21 22:33N 39°54' W 075°09'0 0.0
2016-May-21 21:33N 39°54' W 075°09'0 0.0
2016-May-21 20:33N 39°54' W 075°09'0 0.0
2016-May-21 19:33N 39°54' W 075°09'0 0.0
2016-May-21 18:33N 39°54' W 075°09'0 0.0
2016-May-21 17:33N 39°54' W 075°09'0 0.0
2016-May-21 16:33N 39°54' W 075°09'0 0.0
2016-May-21 15:33N 39°54' W 075°09'0 0.0
2016-May-21 14:33N 39°54' W 075°09'0 0.0
2016-May-21 13:31N 39°54' W 075°09'0 0.0
2016-May-21 12:33N 39°54' W 075°09'0 0.0
2016-May-21 11:33N 39°54' W 075°09'0 0.0
2016-May-21 10:33N 39°54' W 075°09'0 0.0
2016-May-21 09:20N 39°54' W 075°09'0 0.0
2016-May-21 08:33N 39°54' W 075°09'0 0.0
2016-May-21 07:33N 39°54' W 075°09'0 0.0
2016-May-21 06:33N 39°54' W 075°09'0 0.0
2016-May-21 05:33N 39°54' W 075°09'0 0.0
2016-May-21 04:33N 39°54' W 075°09'0 0.0
2016-May-21 03:33N 39°54' W 075°09'0 0.0
2016-May-21 02:33N 39°54' W 075°09'0 0.0
2016-May-21 01:33N 39°54' W 075°09'0 0.0
2016-May-21 00:33N 39°54' W 075°09'0 0.0
2016-May-20 23:33N 39°54' W 075°09'0 0.0
2016-May-20 22:29N 39°54' W 075°09'0 0.0
2016-May-20 20:30N 39°54' W 075°09'0 0.0
2016-May-20 19:33N 39°54' W 075°09'0 0.3
2016-May-20 18:33N 39°54' W 075°08'0 0.0
2016-May-20 17:33N 39°54' W 075°08'0 0.0
2016-May-20 16:33N 39°54' W 075°08'0 0.3
2016-May-20 15:33N 39°54' W 075°08'0 0.5
2016-May-20 14:33N 39°54' W 075°09'0 0.0
2016-May-20 13:33N 39°54' W 075°09'0 0.0
2016-May-20 12:33N 39°54' W 075°09'0 0.0
2016-May-20 11:33N 39°54' W 075°09'0 0.0
2016-May-20 10:33N 39°54' W 075°09'0 0.0
2016-May-20 09:33N 39°54' W 075°09'0 0.0
2016-May-20 08:33N 39°54' W 075°09'0 0.0
2016-May-20 07:33N 39°54' W 075°09'0 0.0
2016-May-20 06:33N 39°54' W 075°09'0 0.0
2016-May-20 05:33N 39°54' W 075°09'0 0.0
2016-May-20 04:33N 39°54' W 075°09'0 0.0
2016-May-20 03:33N 39°54' W 075°09'0 0.0
2016-May-20 02:33N 39°54' W 075°09'0 0.0
2016-May-20 01:33N 39°54' W 075°09'0 0.0
2016-May-20 00:33N 39°54' W 075°09'0 0.0
2016-May-19 23:33N 39°54' W 075°09'0 0.0
2016-May-19 22:33N 39°54' W 075°09'0 0.0
2016-May-19 21:33N 39°54' W 075°09'0 0.0
2016-May-19 20:33N 39°54' W 075°09'0 0.0
2016-May-19 19:31N 39°54' W 075°09'0 0.0
2016-May-19 18:33N 39°54' W 075°09'0 0.0
2016-May-19 17:32N 39°54' W 075°09'0 0.0
2016-May-19 16:33N 39°54' W 075°09'0 0.0
2016-May-19 15:33N 39°54' W 075°09'0 0.0
2016-May-19 14:33N 39°54' W 075°09'0 0.0
2016-May-19 13:33N 39°54' W 075°09'0 0.0
2016-May-19 12:33N 39°54' W 075°09'0 0.0
2016-May-19 11:33N 39°54' W 075°09'0 0.0
2016-May-19 10:29N 39°54' W 075°09'0 0.0
2016-May-19 09:33N 39°54' W 075°09'0 0.0
2016-May-19 08:33N 39°54' W 075°09'0 0.0
2016-May-19 07:33N 39°54' W 075°09'0 0.0
2016-May-19 06:33N 39°54' W 075°09'0 0.0
2016-May-19 05:33N 39°54' W 075°09'0 0.0
2016-May-19 04:33N 39°54' W 075°09'0 0.0
2016-May-19 03:33N 39°54' W 075°09'0 0.0
2016-May-19 02:33N 39°54' W 075°09'0 0.0
2016-May-19 01:33N 39°54' W 075°09'0 0.0
2016-May-19 00:33N 39°54' W 075°09'0 0.0
2016-May-18 23:33N 39°54' W 075°09'0 0.0
2016-May-18 22:33N 39°54' W 075°09'0 0.0
2016-May-18 21:33N 39°54' W 075°09'0 0.0
2016-May-18 20:33N 39°54' W 075°09'0 0.0
2016-May-18 19:31N 39°54' W 075°09'0 0.0
2016-May-18 18:33N 39°54' W 075°09'0 0.0
2016-May-18 17:33N 39°54' W 075°09'0 0.0
2016-May-18 16:22N 39°54' W 075°09'0 0.0
2016-May-18 15:33N 39°54' W 075°09'0 0.0
2016-May-18 14:05N 39°54' W 075°09'0 0.0
2016-May-18 13:33N 39°54' W 075°09'0 0.0
2016-May-18 12:33N 39°54' W 075°09'11 9.7
2016-May-18 11:26N 39°50' W 075°22'3 3.6
2016-May-18 10:33N 39°48' W 075°25'2 2.4
2016-May-18 09:33N 39°47' W 075°28'5 5.4
2016-May-18 08:33N 39°42' W 075°31'5 5.0
2016-May-18 07:33N 39°38' W 075°34'4 4.2
2016-May-18 06:33N 39°34' W 075°34'6 5.7
2016-May-18 05:33N 39°33' W 075°42'5 5.1
2016-May-18 04:33N 39°32' W 075°48'5 4.6
2016-May-18 03:33N 39°31' W 075°54'  
Track history (hours):
 
Tides and Currents Weather Stations Pressure Air Temp Water Temp Dewpoint Dewpoint Depression Visibility Wind Speed Wind Dir Waves Ship Positions

First Coast

Owner: DANN MARINE TOWING L C, CHESAPEAKE CITY, MD. More information available from US FCC via Universal Licensing System and Coast Guard Vessel Documentation Center.

Last reported at 2016-May-28 01:34 UTC. Time now 2016-May-28 02:03 UTC.
Position N 39°54' W 075°09'.

; draft 4 m.

Type: Tug. MMSI: 367024280.

Date/timePositionNaut miles runAvg speedWind from/ knotsBaromVisibWave heightAir tempDewpointWater temp
2016-May-28 01:34N 39°54' W 075°09'0 0.0
2016-May-28 00:33N 39°54' W 075°09'0 0.0
2016-May-27 23:33N 39°54' W 075°09'0 0.1
2016-May-27 22:33N 39°54' W 075°08'0 0.1
2016-May-27 21:33N 39°54' W 075°09'0 0.0
2016-May-27 20:33N 39°54' W 075°09'0 0.0
2016-May-27 19:32N 39°54' W 075°09'0 0.0
2016-May-27 18:33N 39°54' W 075°09'0 0.0
2016-May-27 17:33N 39°54' W 075°09'0 0.0
2016-May-27 16:28N 39°54' W 075°09'0 0.5
2016-May-27 15:33N 39°54' W 075°08'0 0.5
2016-May-27 14:33N 39°54' W 075°09'0 0.0
2016-May-27 13:31N 39°54' W 075°09'0 0.0
2016-May-27 12:33N 39°54' W 075°09'0 0.0
2016-May-27 11:33N 39°54' W 075°09'0 0.0
2016-May-27 10:33N 39°54' W 075°09'0 0.0
2016-May-27 09:33N 39°54' W 075°09'0 0.0
2016-May-27 08:33N 39°54' W 075°09'0 0.0
2016-May-27 07:33N 39°54' W 075°09'0 0.0
2016-May-27 06:33N 39°54' W 075°09'0 0.0
2016-May-27 05:33N 39°54' W 075°09'3 3.4
2016-May-27 04:33N 39°52' W 075°13'9 9.4
2016-May-27 03:33N 39°49' W 075°24'2 2.2
2016-May-27 02:28N 39°48' W 075°27'5 5.6
2016-May-27 01:32N 39°43' W 075°30'5 5.4
2016-May-27 00:33N 39°39' W 075°34'5 4.8
2016-May-26 23:33N 39°34' W 075°33'6 6.3
2016-May-26 22:33N 39°33' W 075°41'6 5.9
2016-May-26 21:33N 39°32' W 075°49'  
2016-May-24 13:33N 39°30' W 075°56'6 6.0
2016-May-24 12:33N 39°32' W 075°48'7 6.9
2016-May-24 11:33N 39°33' W 075°40'6 5.6
2016-May-24 10:33N 39°37' W 075°35'1110.6
2016-May-24 09:33N 39°46' W 075°28'3 2.9
2016-May-24 08:33N 39°48' W 075°25'0 0.0
2016-May-24 07:33N 39°48' W 075°25'0 0.0
2016-May-24 06:33N 39°48' W 075°25'0 0.0
2016-May-24 05:33N 39°48' W 075°25'0 0.0
2016-May-24 04:33N 39°48' W 075°25'0 0.0
2016-May-24 03:33N 39°48' W 075°25'0 0.0
2016-May-24 02:33N 39°48' W 075°25'0 0.0
2016-May-24 01:33N 39°48' W 075°25'0 0.0
2016-May-24 00:33N 39°48' W 075°25'0 0.0
2016-May-23 23:33N 39°48' W 075°25'0 0.0
2016-May-23 22:33N 39°48' W 075°25'0 0.0
2016-May-23 21:33N 39°48' W 075°25'0 0.0
2016-May-23 20:33N 39°48' W 075°25'0 0.0
2016-May-23 19:33N 39°48' W 075°25'0 0.0
2016-May-23 18:30N 39°48' W 075°25'0 0.0
2016-May-23 17:33N 39°48' W 075°25'0 0.0
2016-May-23 14:30N 39°48' W 075°25'0 0.0
2016-May-23 13:33N 39°48' W 075°25'0 0.0
2016-May-23 12:33N 39°48' W 075°25'0 0.0
2016-May-23 11:33N 39°48' W 075°25'0 0.0
2016-May-23 10:33N 39°48' W 075°25'0 0.0
2016-May-23 09:33N 39°48' W 075°25'0 0.0
2016-May-23 08:33N 39°48' W 075°25'0 0.0
2016-May-23 07:33N 39°48' W 075°25'0 0.0
2016-May-23 06:33N 39°48' W 075°25'0 0.0
2016-May-23 05:33N 39°48' W 075°25'0 0.0
2016-May-23 04:33N 39°48' W 075°25'0 0.0
2016-May-23 03:33N 39°48' W 075°25'0 0.0
2016-May-23 02:33N 39°48' W 075°25'0 0.0
2016-May-23 01:33N 39°48' W 075°25'0 0.0
2016-May-23 00:33N 39°48' W 075°25'0 0.0
2016-May-22 23:33N 39°48' W 075°25'0 0.0
2016-May-22 22:33N 39°48' W 075°25'0 0.0
2016-May-22 21:33N 39°48' W 075°25'0 0.0
2016-May-22 20:33N 39°48' W 075°25'0 0.0
2016-May-22 19:33N 39°48' W 075°25'0 0.0
2016-May-22 18:30N 39°48' W 075°25'0 0.0
2016-May-22 17:33N 39°48' W 075°25'0 0.0
2016-May-22 16:33N 39°48' W 075°25'4 3.6
2016-May-22 15:33N 39°50' W 075°21'8 7.9
2016-May-22 14:33N 39°53' W 075°12'1 0.7
2016-May-22 13:32N 39°54' W 075°12'3 3.0
2016-May-22 12:33N 39°54' W 075°09'0 0.0
2016-May-22 11:33N 39°54' W 075°09'0 0.0
2016-May-22 10:33N 39°54' W 075°09'0 0.0
2016-May-22 09:33N 39°54' W 075°09'0 0.0
2016-May-22 08:32N 39°54' W 075°09'0 0.0
2016-May-22 07:33N 39°54' W 075°09'0 0.0
2016-May-22 06:33N 39°54' W 075°09'0 0.0
2016-May-22 05:33N 39°54' W 075°09'0 0.0
2016-May-22 04:33N 39°54' W 075°09'0 0.0
2016-May-22 03:33N 39°54' W 075°09'0 0.0
2016-May-22 02:33N 39°54' W 075°09'0 0.0
2016-May-22 01:33N 39°54' W 075°09'0 0.0
2016-May-22 00:33N 39°54' W 075°09'0 0.0
2016-May-21 23:33N 39°54' W 075°09'0 0.0
2016-May-21 22:33N 39°54' W 075°09'0 0.0
2016-May-21 21:33N 39°54' W 075°09'0 0.0
2016-May-21 20:33N 39°54' W 075°09'0 0.0
2016-May-21 19:33N 39°54' W 075°09'0 0.0
2016-May-21 18:33N 39°54' W 075°09'0 0.0
2016-May-21 17:33N 39°54' W 075°09'0 0.0
2016-May-21 16:33N 39°54' W 075°09'0 0.0
2016-May-21 15:33N 39°54' W 075°09'0 0.0
2016-May-21 14:33N 39°54' W 075°09'0 0.0
2016-May-21 13:31N 39°54' W 075°09'0 0.0
2016-May-21 12:33N 39°54' W 075°09'0 0.0
2016-May-21 11:33N 39°54' W 075°09'0 0.0
2016-May-21 10:33N 39°54' W 075°09'0 0.0
2016-May-21 09:20N 39°54' W 075°09'0 0.0
2016-May-21 08:33N 39°54' W 075°09'0 0.0
2016-May-21 07:33N 39°54' W 075°09'0 0.0
2016-May-21 06:33N 39°54' W 075°09'0 0.0
2016-May-21 05:33N 39°54' W 075°09'0 0.0
2016-May-21 04:33N 39°54' W 075°09'0 0.0
2016-May-21 03:33N 39°54' W 075°09'0 0.0
2016-May-21 02:33N 39°54' W 075°09'0 0.0
2016-May-21 01:33N 39°54' W 075°09'0 0.0
2016-May-21 00:33N 39°54' W 075°09'0 0.0
2016-May-20 23:33N 39°54' W 075°09'0 0.0
2016-May-20 22:29N 39°54' W 075°09'0 0.0
2016-May-20 20:30N 39°54' W 075°09'0 0.0
2016-May-20 19:33N 39°54' W 075°09'0 0.3
2016-May-20 18:33N 39°54' W 075°08'0 0.0
2016-May-20 17:33N 39°54' W 075°08'0 0.0
2016-May-20 16:33N 39°54' W 075°08'0 0.3
2016-May-20 15:33N 39°54' W 075°08'0 0.5
2016-May-20 14:33N 39°54' W 075°09'0 0.0
2016-May-20 13:33N 39°54' W 075°09'0 0.0
2016-May-20 12:33N 39°54' W 075°09'0 0.0
2016-May-20 11:33N 39°54' W 075°09'0 0.0
2016-May-20 10:33N 39°54' W 075°09'0 0.0
2016-May-20 09:33N 39°54' W 075°09'0 0.0
2016-May-20 08:33N 39°54' W 075°09'0 0.0
2016-May-20 07:33N 39°54' W 075°09'0 0.0
2016-May-20 06:33N 39°54' W 075°09'0 0.0
2016-May-20 05:33N 39°54' W 075°09'0 0.0
2016-May-20 04:33N 39°54' W 075°09'0 0.0
2016-May-20 03:33N 39°54' W 075°09'0 0.0
2016-May-20 02:33N 39°54' W 075°09'0 0.0
2016-May-20 01:33N 39°54' W 075°09'0 0.0
2016-May-20 00:33N 39°54' W 075°09'0 0.0
2016-May-19 23:33N 39°54' W 075°09'0 0.0
2016-May-19 22:33N 39°54' W 075°09'0 0.0
2016-May-19 21:33N 39°54' W 075°09'0 0.0
2016-May-19 20:33N 39°54' W 075°09'0 0.0
2016-May-19 19:31N 39°54' W 075°09'0 0.0
2016-May-19 18:33N 39°54' W 075°09'0 0.0
2016-May-19 17:32N 39°54' W 075°09'0 0.0
2016-May-19 16:33N 39°54' W 075°09'0 0.0
2016-May-19 15:33N 39°54' W 075°09'0 0.0
2016-May-19 14:33N 39°54' W 075°09'0 0.0
2016-May-19 13:33N 39°54' W 075°09'0 0.0
2016-May-19 12:33N 39°54' W 075°09'0 0.0
2016-May-19 11:33N 39°54' W 075°09'0 0.0
2016-May-19 10:29N 39°54' W 075°09'0 0.0
2016-May-19 09:33N 39°54' W 075°09'0 0.0
2016-May-19 08:33N 39°54' W 075°09'0 0.0
2016-May-19 07:33N 39°54' W 075°09'0 0.0
2016-May-19 06:33N 39°54' W 075°09'0 0.0
2016-May-19 05:33N 39°54' W 075°09'0 0.0
2016-May-19 04:33N 39°54' W 075°09'0 0.0
2016-May-19 03:33N 39°54' W 075°09'0 0.0
2016-May-19 02:33N 39°54' W 075°09'0 0.0
2016-May-19 01:33N 39°54' W 075°09'0 0.0
2016-May-19 00:33N 39°54' W 075°09'0 0.0
2016-May-18 23:33N 39°54' W 075°09'0 0.0
2016-May-18 22:33N 39°54' W 075°09'0 0.0
2016-May-18 21:33N 39°54' W 075°09'0 0.0
2016-May-18 20:33N 39°54' W 075°09'0 0.0
2016-May-18 19:31N 39°54' W 075°09'0 0.0
2016-May-18 18:33N 39°54' W 075°09'0 0.0
2016-May-18 17:33N 39°54' W 075°09'0 0.0
2016-May-18 16:22N 39°54' W 075°09'0 0.0
2016-May-18 15:33N 39°54' W 075°09'0 0.0
2016-May-18 14:05N 39°54' W 075°09'0 0.0
2016-May-18 13:33N 39°54' W 075°09'0 0.0
2016-May-18 12:33N 39°54' W 075°09'11 9.7
2016-May-18 11:26N 39°50' W 075°22'3 3.6
2016-May-18 10:33N 39°48' W 075°25'2 2.4
2016-May-18 09:33N 39°47' W 075°28'5 5.4
2016-May-18 08:33N 39°42' W 075°31'5 5.0
2016-May-18 07:33N 39°38' W 075°34'4 4.2
2016-May-18 06:33N 39°34' W 075°34'6 5.7
2016-May-18 05:33N 39°33' W 075°42'5 5.1
2016-May-18 04:33N 39°32' W 075°48'5 4.6
2016-May-18 03:33N 39°31' W 075°54'  

Dump ship's entire track history